Little Burnt Bay, Canada
Current Conditions -  °F | °C
As of 11:00 PM on Saturday 25 Oct 2014 (Local Time) from CYQX Reporting Station
Light Rain Light Rain  
Wind Chill: 30°   Ceiling: 500
Heat Index: 39°   Visibility: 4mi
Dew Point: 39°   Wind: 16mph
Humidity: 100%   Direction: 50°NE
Pressure: 29.55"   Gusts: 28mph
Location:  49.33°N, 55.08°W
Report Text: CYQX 260100Z 05014G24KT 4SM -RA BR BKN005 OVC020 04/04 A2955 RMK SF7SC1 SLP010
Loading
Personal Weather Stations






























Interactive Weather Map
Tropical Storm Tracking
New forecast layout! Learn more

10-Day Weather Forecast

Advertisements
Track Severe Weather on mobile